Monday, July 23, 2018, 11:29 AM EDT
Back to Local

KFIT, Fitchburg, Fitchburg Municipal Airport

Location: Leominster, MA, United States Lat: 42.552
Local Time: 11:29 AM EDT (15:29 GMT) Lon: -71.756
Time Zone: US/Eastern Elev: 347 ft

Show me the last for .
Show Decoded

2018-07-23 11:14 METAR KFIT 231514Z AUTO 15010KT 10SM BKN016 OVC021 26/24 A3022 RMK AO2 T02560239
                 =
2018-07-23 10:52 METAR KFIT 231452Z AUTO 14013KT 10SM OVC013 25/24 A3022 RMK AO2 RAB03E07 SLP233
                 P0000 60001 T02500239 51008 =
2018-07-23 09:52 METAR KFIT 231352Z AUTO 14011KT 6SM BR OVC011 24/24 A3022 RMK AO2 RAB1253E34
                 SLP233 P0001 T02390239 =
2018-07-23 08:52 METAR KFIT 231252Z AUTO 14008KT 6SM BR OVC012 24/24 A3021 RMK AO2 SLP228
                 T02390239 =
2018-07-23 08:07 METAR KFIT 231207Z AUTO 15007KT 6SM BR OVC010 23/23 A3020 RMK AO2 CIG 008V014
                 T02330233 =
2018-07-23 07:52 METAR KFIT 231152Z AUTO 14008KT 9SM OVC009 23/23 A3020 RMK AO2 CIG 007V013
                 SLP225 60000 70052 T02330233 10233 20228 51013 =
2018-07-23 06:52 METAR KFIT 231052Z AUTO 14006KT 9SM OVC011 23/23 A3019 RMK AO2 RAB0955E05 SLP222
                 P0000 T02280228 $ =
2018-07-23 06:42 METAR KFIT 231042Z AUTO 14007KT 8SM OVC011 23/23 A3019 RMK AO2 RAB0955E05 CIG
                 007V013 P0000 T02280228 $ =
2018-07-23 06:33 METAR KFIT 231033Z AUTO 14006KT 9SM OVC009 23/23 A3019 RMK AO2 RAB0955E05 CIG
                 007V014 P0000 T02280228 $ =
2018-07-23 06:16 METAR KFIT 231016Z AUTO 14008KT 7SM OVC010 23/23 A3018 RMK AO2 RAB0955E05 CIG
                 007V013 P0000 T02280228 $ =
2018-07-23 06:09 METAR KFIT 231009Z AUTO 14008KT 7SM BKN008 OVC013 23/23 A3018 RMK AO2 RAB0955E05
                 P0000 T02280228 $ =
2018-07-23 05:52 METAR KFIT 230952Z AUTO 13006KT 7SM OVC012 23/23 A3018 RMK AO2 SLP218 T02280228
                 $ =
2018-07-23 04:52 METAR KFIT 230852Z AUTO 14008KT 9SM OVC011 23/23 A3016 RMK AO2 RAB20E31 SLP211
                 P0000 60000 T02280228 51002 $ =
2018-07-23 04:06 METAR KFIT 230806Z AUTO 14006KT 8SM OVC009 23/23 A3016 RMK AO2 CIG 007V011
                 T02280228 $ =
2018-07-23 03:52 METAR KFIT 230752Z AUTO 14005KT 9SM OVC011 23/23 A3016 RMK AO2 SLP210 T02280228
                 $ =
2018-07-23 02:52 METAR KFIT 230652Z AUTO 14008KT 6SM BR OVC007 23/23 A3015 RMK AO2 CIG 006V011
                 SLP209 T02280228 $ =
2018-07-23 01:52 METAR KFIT 230552Z AUTO 14007KT 10SM BKN007 OVC011 23/23 A3015 RMK AO2 RAB33E49
                 CIG 005V009 SLP209 P0003 60025 T02280228 10228 20217 56003 $ =
2018-07-23 01:12 METAR KFIT 230512Z AUTO 15007KT 7SM BKN007 OVC013 23/23 A3015 RMK AO2 CIG
                 006V011 T02280228 $ =
2018-07-23 00:52 METAR KFIT 230452Z AUTO 13007KT 9SM BKN010 OVC016 23/23 A3015 RMK AO2 CIG
                 007V013 SLP209 T02280228 402610172 $ =
2018-07-23 00:48 METAR KFIT 230448Z AUTO 13006KT 9SM OVC010 23/23 A3015 RMK AO2 CIG 007V013 $ =
2018-07-22 23:52 METAR KFIT 230352Z AUTO 14004KT 10SM OVC006 23/23 A3016 RMK AO2 RAE14 SLP212
                 P0000 T02280228 $ =
2018-07-22 23:38 METAR KFIT 230338Z AUTO 14004KT 10SM OVC006 22/22 A3016 RMK AO2 RAE14 CIG
                 005V010 P0000 T02220222 $ =
2018-07-22 22:52 METAR KFIT 230252Z AUTO 14003KT 3SM -RA BR OVC005 22/22 A3017 RMK AO2 RAE14B30
                 SLP214 P0001 60022 T02220222 51009 $ =
2018-07-22 22:20 METAR KFIT 230220Z AUTO 00000KT 7SM BKN005 OVC013 22/22 A3016 RMK AO2 RAE14
                 P0000 T02220222 $ =
2018-07-22 22:12 METAR KFIT 230212Z AUTO 00000KT 10SM -RA BKN006 OVC015 22/22 A3016 RMK AO2 P0000
                 T02170217 $ =
2018-07-22 21:52 METAR KFIT 230152Z AUTO 00000KT 5SM RA BR FEW008 BKN014 OVC018 22/22 A3016 RMK
                 AO2 RAB22 SLP212 P0020 T02170217 $ =
2018-07-22 21:48 METAR KFIT 230148Z AUTO 10003KT 3SM -RA BR FEW008 BKN014 OVC020 22/22 A3016 RMK
                 AO2 RAB22 P0019 $ =
2018-07-22 21:38 METAR KFIT 230138Z AUTO VRB03KT 1 3/4SM +RA BR FEW007 OVC012 22/22 A3016 RMK AO2
                 RAB22 P0016 T02220222 $ =
2018-07-22 21:34 METAR KFIT 230134Z AUTO 00000KT 6SM -RA BR FEW005 BKN010 OVC015 22/22 A3016 RMK
                 AO2 RAB22 CIG 008V012 P0003 T02220222 $ =
2018-07-22 21:13 METAR KFIT 230113Z AUTO 06003KT 10SM FEW009 OVC017 22/22 A3015 RMK AO2 T02220222
                 $ =
2018-07-22 20:52 METAR KFIT 230052Z AUTO 00000KT 10SM OVC019 22/22 A3015 RMK AO2 RAE11B20E30
                 SLP209 P0001 T02220222 $ =
2018-07-22 20:15 METAR KFIT 230015Z AUTO 14004KT 10SM FEW009 OVC022 22/22 A3014 RMK AO2 RAE11
                 P0001 T02220222 $ =
2018-07-22 19:52 METAR KFIT 222352Z AUTO 13008KT 8SM -RA SCT012 BKN021 OVC030 23/22 A3014 RMK AO2
                 RAB13 SLP204 P0000 60000 T02280222 10261 20228 53015 $ =
2018-07-22 19:09 METAR KFIT 222309Z AUTO 14009KT 9SM SCT022 BKN028 OVC050 24/22 A3012 RMK AO2
                 T02390217 $ =
2018-07-22 18:52 METAR KFIT 222252Z AUTO 14009KT 10SM FEW022 BKN031 OVC070 24/22 A3012 RMK AO2
                 SLP198 T02440217 $ =
2018-07-22 18:39 METAR KFIT 222239Z AUTO 14009KT 10SM SCT024 BKN033 BKN070 24/22 A3011 RMK AO2
                 T02440217 $ =
2018-07-22 18:30 METAR KFIT 222230Z AUTO 15009KT 10SM BKN023 OVC033 24/22 A3012 RMK AO2 T02440217
                 $ =
2018-07-22 17:52 METAR KFIT 222152Z AUTO 14010KT 10SM BKN035 25/22 A3011 RMK AO2 SLP195 T02500217
                 $ =
2018-07-22 16:52 METAR KFIT 222052Z AUTO 13009KT 10SM FEW022 SCT030 BKN045 26/22 A3009 RMK AO2
                 SLP190 T02610222 55000 $ =
2018-07-22 16:39 METAR KFIT 222039Z AUTO 14009KT 10SM SCT024 BKN030 OVC043 25/22 A3009 RMK AO2
                 T02500217 $ =
2018-07-22 15:52 METAR KFIT 221952Z AUTO 15009KT 10SM BKN020 BKN025 OVC030 25/22 A3009 RMK AO2
                 SLP189 T02500222 $ =
2018-07-22 14:52 METAR KFIT 221852Z AUTO 12008KT 10SM OVC018 24/22 A3009 RMK AO2 SLP188 T02440222
                 $ =
2018-07-22 13:59 METAR KFIT 221759Z AUTO 12006KT 10SM OVC016 23/22 A3009 RMK AO2 T02330217 $ =
2018-07-22 13:52 METAR KFIT 221752Z AUTO 13006KT 10SM BKN014 OVC019 23/22 A3009 RMK AO2 SLP190
                 60027 T02330217 10239 20183 53008 $ =
2018-07-22 13:24 METAR KFIT 221724Z AUTO 11005KT 10SM SCT011 OVC018 24/22 A3009 RMK AO2 T02390222
                 $ =
2018-07-22 12:52 METAR KFIT 221652Z AUTO 15006KT 10SM BKN012 OVC018 22/22 A3009 RMK AO2 SLP188
                 T02170217 $ =
2018-07-22 12:26 METAR KFIT 221626Z AUTO 14008KT 10SM SCT012 OVC019 22/21 A3008 RMK AO2 T02220211
                 $ =
2018-07-22 11:52 METAR KFIT 221552Z AUTO 15007KT 10SM BKN012 BKN019 BKN038 22/22 A3008 RMK AO2
                 RAE32 SLP185 P0001 T02170217 $ =

Support USWX by starting your Amazon purchase here.